sensor_id;sensor_type;location;lat;lon;timestamp;P1;durP1;ratioP1;P2;durP2;ratioP2
14203;SDS011;7185;51.854;6.622;2022-08-21T00:00:52;7.85;;;4.35;;
14203;SDS011;7185;51.854;6.622;2022-08-21T00:03:24;6.75;;;3.88;;
14203;SDS011;7185;51.854;6.622;2022-08-21T00:05:56;8.02;;;4.45;;
14203;SDS011;7185;51.854;6.622;2022-08-21T00:08:27;6.93;;;4.13;;
14203;SDS011;7185;51.854;6.622;2022-08-21T00:11:00;9.98;;;4.68;;
14203;SDS011;7185;51.854;6.622;2022-08-21T00:13:32;9.75;;;5.00;;
14203;SDS011;7185;51.854;6.622;2022-08-21T00:16:04;9.63;;;4.45;;
14203;SDS011;7185;51.854;6.622;2022-08-21T00:18:36;9.63;;;4.50;;
14203;SDS011;7185;51.854;6.622;2022-08-21T00:21:10;8.43;;;4.65;;
14203;SDS011;7185;51.854;6.622;2022-08-21T00:23:42;10.48;;;4.70;;
14203;SDS011;7185;51.854;6.622;2022-08-21T00:26:16;7.18;;;4.43;;
14203;SDS011;7185;51.854;6.622;2022-08-21T00:28:48;9.57;;;4.72;;
14203;SDS011;7185;51.854;6.622;2022-08-21T00:31:19;9.02;;;5.03;;
14203;SDS011;7185;51.854;6.622;2022-08-21T00:33:51;9.88;;;4.30;;
14203;SDS011;7185;51.854;6.622;2022-08-21T00:36:23;9.45;;;4.90;;
14203;SDS011;7185;51.854;6.622;2022-08-21T00:38:54;9.18;;;4.55;;
14203;SDS011;7185;51.854;6.622;2022-08-21T00:41:28;9.38;;;5.25;;
14203;SDS011;7185;51.854;6.622;2022-08-21T00:44:00;9.40;;;4.63;;
14203;SDS011;7185;51.854;6.622;2022-08-21T00:46:31;8.52;;;4.50;;
14203;SDS011;7185;51.854;6.622;2022-08-21T00:49:03;7.60;;;4.90;;
14203;SDS011;7185;51.854;6.622;2022-08-21T00:51:37;7.43;;;4.43;;
14203;SDS011;7185;51.854;6.622;2022-08-21T00:54:11;10.43;;;5.55;;
14203;SDS011;7185;51.854;6.622;2022-08-21T00:56:46;7.85;;;4.68;;
14203;SDS011;7185;51.854;6.622;2022-08-21T01:01:52;12.57;;;5.35;;
14203;SDS011;7185;51.854;6.622;2022-08-21T01:04:24;8.77;;;4.97;;
14203;SDS011;7185;51.854;6.622;2022-08-21T01:06:57;9.13;;;4.72;;
14203;SDS011;7185;51.854;6.622;2022-08-21T01:09:28;9.30;;;4.97;;
14203;SDS011;7185;51.854;6.622;2022-08-21T01:12:02;10.77;;;5.35;;
14203;SDS011;7185;51.854;6.622;2022-08-21T01:14:34;16.60;;;5.78;;
14203;SDS011;7185;51.854;6.622;2022-08-21T01:17:06;8.32;;;5.05;;
14203;SDS011;7185;51.854;6.622;2022-08-21T01:19:39;8.90;;;4.57;;
14203;SDS011;7185;51.854;6.622;2022-08-21T01:22:12;9.65;;;5.28;;
14203;SDS011;7185;51.854;6.622;2022-08-21T01:24:44;7.57;;;4.63;;
14203;SDS011;7185;51.854;6.622;2022-08-21T01:27:16;11.23;;;4.88;;
14203;SDS011;7185;51.854;6.622;2022-08-21T01:29:50;9.07;;;5.00;;
14203;SDS011;7185;51.854;6.622;2022-08-21T01:32:25;9.02;;;4.78;;
14203;SDS011;7185;51.854;6.622;2022-08-21T01:34:57;7.70;;;5.00;;
14203;SDS011;7185;51.854;6.622;2022-08-21T01:37:30;9.65;;;4.85;;
14203;SDS011;7185;51.854;6.622;2022-08-21T01:40:02;8.07;;;5.03;;
14203;SDS011;7185;51.854;6.622;2022-08-21T01:42:35;8.32;;;5.13;;
14203;SDS011;7185;51.854;6.622;2022-08-21T01:45:08;8.85;;;5.10;;
14203;SDS011;7185;51.854;6.622;2022-08-21T01:47:40;9.35;;;4.82;;
14203;SDS011;7185;51.854;6.622;2022-08-21T01:50:13;7.00;;;4.95;;
14203;SDS011;7185;51.854;6.622;2022-08-21T01:55:23;9.95;;;5.82;;
14203;SDS011;7185;51.854;6.622;2022-08-21T01:57:55;12.48;;;5.38;;
14203;SDS011;7185;51.854;6.622;2022-08-21T02:00:28;11.35;;;5.22;;
14203;SDS011;7185;51.854;6.622;2022-08-21T02:03:00;9.50;;;5.30;;
14203;SDS011;7185;51.854;6.622;2022-08-21T02:05:32;8.65;;;5.07;;
14203;SDS011;7185;51.854;6.622;2022-08-21T02:08:05;8.23;;;5.05;;
14203;SDS011;7185;51.854;6.622;2022-08-21T02:10:37;8.32;;;4.75;;
14203;SDS011;7185;51.854;6.622;2022-08-21T02:13:11;8.68;;;4.90;;
14203;SDS011;7185;51.854;6.622;2022-08-21T02:15:42;8.40;;;5.28;;
14203;SDS011;7185;51.854;6.622;2022-08-21T02:18:14;7.45;;;4.57;;
14203;SDS011;7185;51.854;6.622;2022-08-21T02:20:47;8.55;;;4.65;;
14203;SDS011;7185;51.854;6.622;2022-08-21T02:23:21;7.85;;;5.05;;
14203;SDS011;7185;51.854;6.622;2022-08-21T02:25:53;6.40;;;4.68;;
14203;SDS011;7185;51.854;6.622;2022-08-21T02:28:25;12.25;;;6.45;;
14203;SDS011;7185;51.854;6.622;2022-08-21T02:30:57;9.48;;;4.97;;
14203;SDS011;7185;51.854;6.622;2022-08-21T02:33:28;7.30;;;5.18;;
14203;SDS011;7185;51.854;6.622;2022-08-21T02:36:00;7.40;;;5.20;;
14203;SDS011;7185;51.854;6.622;2022-08-21T02:38:34;9.27;;;4.93;;
14203;SDS011;7185;51.854;6.622;2022-08-21T02:41:09;11.75;;;5.30;;
14203;SDS011;7185;51.854;6.622;2022-08-21T02:43:43;10.70;;;5.35;;
14203;SDS011;7185;51.854;6.622;2022-08-21T02:46:16;10.55;;;5.68;;
14203;SDS011;7185;51.854;6.622;2022-08-21T02:48:49;7.10;;;4.80;;
14203;SDS011;7185;51.854;6.622;2022-08-21T02:51:21;7.25;;;4.70;;
14203;SDS011;7185;51.854;6.622;2022-08-21T02:53:55;8.82;;;5.43;;
14203;SDS011;7185;51.854;6.622;2022-08-21T02:56:26;7.78;;;5.18;;
14203;SDS011;7185;51.854;6.622;2022-08-21T02:58:59;8.85;;;4.97;;
14203;SDS011;7185;51.854;6.622;2022-08-21T03:01:30;11.30;;;5.53;;
14203;SDS011;7185;51.854;6.622;2022-08-21T03:04:02;8.02;;;4.57;;
14203;SDS011;7185;51.854;6.622;2022-08-21T03:06:34;8.50;;;5.20;;
14203;SDS011;7185;51.854;6.622;2022-08-21T03:09:07;10.00;;;5.35;;
14203;SDS011;7185;51.854;6.622;2022-08-21T03:14:19;8.57;;;5.30;;
14203;SDS011;7185;51.854;6.622;2022-08-21T03:16:51;8.40;;;4.78;;
14203;SDS011;7185;51.854;6.622;2022-08-21T03:19:22;7.43;;;5.03;;
14203;SDS011;7185;51.854;6.622;2022-08-21T03:21:54;10.80;;;5.90;;
14203;SDS011;7185;51.854;6.622;2022-08-21T03:24:27;7.18;;;5.15;;
14203;SDS011;7185;51.854;6.622;2022-08-21T03:26:59;7.10;;;5.00;;
14203;SDS011;7185;51.854;6.622;2022-08-21T03:29:31;9.18;;;5.13;;
14203;SDS011;7185;51.854;6.622;2022-08-21T03:32:02;9.38;;;5.07;;
14203;SDS011;7185;51.854;6.622;2022-08-21T03:34:34;9.52;;;4.78;;
14203;SDS011;7185;51.854;6.622;2022-08-21T03:37:06;8.43;;;5.05;;
14203;SDS011;7185;51.854;6.622;2022-08-21T03:39:41;8.85;;;5.80;;
14203;SDS011;7185;51.854;6.622;2022-08-21T03:42:13;7.60;;;5.32;;
14203;SDS011;7185;51.854;6.622;2022-08-21T03:44:44;10.43;;;5.55;;
14203;SDS011;7185;51.854;6.622;2022-08-21T03:47:16;8.45;;;5.20;;
14203;SDS011;7185;51.854;6.622;2022-08-21T03:49:48;10.50;;;5.85;;
14203;SDS011;7185;51.854;6.622;2022-08-21T03:52:19;7.47;;;5.20;;
14203;SDS011;7185;51.854;6.622;2022-08-21T03:54:52;9.05;;;5.50;;
14203;SDS011;7185;51.854;6.622;2022-08-21T03:57:24;8.93;;;5.88;;
14203;SDS011;7185;51.854;6.622;2022-08-21T03:59:56;8.30;;;5.60;;
14203;SDS011;7185;51.854;6.622;2022-08-21T04:02:27;9.43;;;6.10;;
14203;SDS011;7185;51.854;6.622;2022-08-21T04:05:00;10.60;;;5.75;;
14203;SDS011;7185;51.854;6.622;2022-08-21T04:07:32;8.35;;;5.53;;
14203;SDS011;7185;51.854;6.622;2022-08-21T04:10:06;9.38;;;5.53;;
14203;SDS011;7185;51.854;6.622;2022-08-21T04:12:39;9.07;;;5.97;;
14203;SDS011;7185;51.854;6.622;2022-08-21T04:15:10;8.13;;;5.78;;
14203;SDS011;7185;51.854;6.622;2022-08-21T04:17:43;10.07;;;5.43;;
14203;SDS011;7185;51.854;6.622;2022-08-21T04:20:15;13.82;;;6.32;;
14203;SDS011;7185;51.854;6.622;2022-08-21T04:22:46;7.63;;;5.47;;
14203;SDS011;7185;51.854;6.622;2022-08-21T04:25:20;8.60;;;5.90;;
14203;SDS011;7185;51.854;6.622;2022-08-21T04:27:54;12.73;;;6.07;;
14203;SDS011;7185;51.854;6.622;2022-08-21T04:30:25;11.57;;;6.50;;
14203;SDS011;7185;51.854;6.622;2022-08-21T04:32:58;10.00;;;6.13;;
14203;SDS011;7185;51.854;6.622;2022-08-21T04:35:30;9.23;;;6.35;;
14203;SDS011;7185;51.854;6.622;2022-08-21T04:38:02;10.27;;;6.60;;
14203;SDS011;7185;51.854;6.622;2022-08-21T04:40:35;11.65;;;6.65;;
14203;SDS011;7185;51.854;6.622;2022-08-21T04:43:08;8.77;;;6.18;;
14203;SDS011;7185;51.854;6.622;2022-08-21T04:45:42;10.77;;;7.30;;
14203;SDS011;7185;51.854;6.622;2022-08-21T04:48:16;8.88;;;5.95;;
14203;SDS011;7185;51.854;6.622;2022-08-21T04:50:52;9.98;;;6.55;;
14203;SDS011;7185;51.854;6.622;2022-08-21T04:53:29;12.82;;;7.30;;
14203;SDS011;7185;51.854;6.622;2022-08-21T04:56:07;11.60;;;7.40;;
14203;SDS011;7185;51.854;6.622;2022-08-21T04:58:42;12.80;;;6.90;;
14203;SDS011;7185;51.854;6.622;2022-08-21T05:01:15;14.93;;;6.97;;
14203;SDS011;7185;51.854;6.622;2022-08-21T05:03:51;10.40;;;7.05;;
14203;SDS011;7185;51.854;6.622;2022-08-21T05:06:26;13.30;;;7.28;;
14203;SDS011;7185;51.854;6.622;2022-08-21T05:09:02;12.63;;;7.68;;
14203;SDS011;7185;51.854;6.622;2022-08-21T05:11:36;11.27;;;7.38;;
14203;SDS011;7185;51.854;6.622;2022-08-21T05:14:08;11.18;;;7.70;;
14203;SDS011;7185;51.854;6.622;2022-08-21T05:16:40;10.60;;;7.00;;
14203;SDS011;7185;51.854;6.622;2022-08-21T05:19:13;9.50;;;6.47;;
14203;SDS011;7185;51.854;6.622;2022-08-21T05:21:45;12.25;;;7.13;;
14203;SDS011;7185;51.854;6.622;2022-08-21T05:24:18;15.13;;;7.85;;
14203;SDS011;7185;51.854;6.622;2022-08-21T05:26:51;8.55;;;6.65;;
14203;SDS011;7185;51.854;6.622;2022-08-21T05:29:22;10.48;;;7.25;;
14203;SDS011;7185;51.854;6.622;2022-08-21T05:31:54;12.43;;;7.90;;
14203;SDS011;7185;51.854;6.622;2022-08-21T05:34:26;12.10;;;7.38;;
14203;SDS011;7185;51.854;6.622;2022-08-21T05:36:58;12.80;;;7.15;;
14203;SDS011;7185;51.854;6.622;2022-08-21T05:39:29;12.95;;;8.25;;
14203;SDS011;7185;51.854;6.622;2022-08-21T05:42:03;8.95;;;7.38;;
14203;SDS011;7185;51.854;6.622;2022-08-21T05:44:34;13.07;;;6.60;;
14203;SDS011;7185;51.854;6.622;2022-08-21T05:47:06;13.65;;;6.45;;
14203;SDS011;7185;51.854;6.622;2022-08-21T05:49:39;9.40;;;6.65;;
14203;SDS011;7185;51.854;6.622;2022-08-21T05:52:11;8.70;;;6.35;;
14203;SDS011;7185;51.854;6.622;2022-08-21T05:54:44;14.10;;;7.03;;
14203;SDS011;7185;51.854;6.622;2022-08-21T05:57:17;11.50;;;6.47;;
14203;SDS011;7185;51.854;6.622;2022-08-21T05:59:48;12.20;;;7.10;;
14203;SDS011;7185;51.854;6.622;2022-08-21T06:02:20;12.57;;;6.78;;
14203;SDS011;7185;51.854;6.622;2022-08-21T06:04:52;14.25;;;7.35;;
14203;SDS011;7185;51.854;6.622;2022-08-21T06:07:27;10.57;;;6.60;;
14203;SDS011;7185;51.854;6.622;2022-08-21T06:09:58;11.90;;;7.55;;
14203;SDS011;7185;51.854;6.622;2022-08-21T06:12:32;15.68;;;8.45;;
14203;SDS011;7185;51.854;6.622;2022-08-21T06:15:04;10.70;;;7.32;;
14203;SDS011;7185;51.854;6.622;2022-08-21T06:17:36;11.35;;;7.63;;
14203;SDS011;7185;51.854;6.622;2022-08-21T06:20:08;12.05;;;8.13;;
14203;SDS011;7185;51.854;6.622;2022-08-21T06:22:40;14.68;;;7.85;;
14203;SDS011;7185;51.854;6.622;2022-08-21T06:25:12;15.00;;;8.68;;
14203;SDS011;7185;51.854;6.622;2022-08-21T06:27:45;14.20;;;8.38;;
14203;SDS011;7185;51.854;6.622;2022-08-21T06:30:17;17.05;;;9.05;;
14203;SDS011;7185;51.854;6.622;2022-08-21T06:32:49;16.58;;;8.50;;
14203;SDS011;7185;51.854;6.622;2022-08-21T06:35:20;13.43;;;8.40;;
14203;SDS011;7185;51.854;6.622;2022-08-21T06:37:52;12.65;;;7.82;;
14203;SDS011;7185;51.854;6.622;2022-08-21T06:40:24;13.57;;;8.50;;
14203;SDS011;7185;51.854;6.622;2022-08-21T06:43:04;12.18;;;7.90;;
14203;SDS011;7185;51.854;6.622;2022-08-21T06:45:37;23.45;;;7.85;;
14203;SDS011;7185;51.854;6.622;2022-08-21T06:48:11;14.02;;;8.23;;
14203;SDS011;7185;51.854;6.622;2022-08-21T06:50:43;13.43;;;8.30;;
14203;SDS011;7185;51.854;6.622;2022-08-21T06:53:17;17.60;;;8.80;;
14203;SDS011;7185;51.854;6.622;2022-08-21T06:55:54;14.38;;;7.55;;
14203;SDS011;7185;51.854;6.622;2022-08-21T06:58:57;11.75;;;7.32;;
14203;SDS011;7185;51.854;6.622;2022-08-21T07:01:52;14.60;;;7.60;;
14203;SDS011;7185;51.854;6.622;2022-08-21T07:04:26;12.80;;;8.77;;
14203;SDS011;7185;51.854;6.622;2022-08-21T07:06:58;14.75;;;8.55;;
14203;SDS011;7185;51.854;6.622;2022-08-21T07:09:35;13.55;;;8.27;;
14203;SDS011;7185;51.854;6.622;2022-08-21T07:12:22;16.02;;;9.60;;
14203;SDS011;7185;51.854;6.622;2022-08-21T07:15:23;13.10;;;8.73;;
14203;SDS011;7185;51.854;6.622;2022-08-21T07:18:36;16.13;;;10.07;;
14203;SDS011;7185;51.854;6.622;2022-08-21T07:21:33;11.30;;;7.85;;
14203;SDS011;7185;51.854;6.622;2022-08-21T07:24:56;17.25;;;8.88;;
14203;SDS011;7185;51.854;6.622;2022-08-21T07:28:35;12.73;;;8.43;;
14203;SDS011;7185;51.854;6.622;2022-08-21T07:32:05;15.90;;;8.65;;
14203;SDS011;7185;51.854;6.622;2022-08-21T07:34:37;16.67;;;8.52;;
14203;SDS011;7185;51.854;6.622;2022-08-21T07:37:10;14.30;;;8.43;;
14203;SDS011;7185;51.854;6.622;2022-08-21T07:39:41;14.82;;;8.82;;
14203;SDS011;7185;51.854;6.622;2022-08-21T07:42:14;14.63;;;8.98;;
14203;SDS011;7185;51.854;6.622;2022-08-21T07:44:47;13.70;;;7.80;;
14203;SDS011;7185;51.854;6.622;2022-08-21T07:47:22;14.68;;;7.65;;
14203;SDS011;7185;51.854;6.622;2022-08-21T07:49:54;11.75;;;7.45;;
14203;SDS011;7185;51.854;6.622;2022-08-21T07:52:26;12.25;;;6.20;;
14203;SDS011;7185;51.854;6.622;2022-08-21T07:54:57;10.82;;;6.43;;
14203;SDS011;7185;51.854;6.622;2022-08-21T07:57:29;12.43;;;6.18;;
14203;SDS011;7185;51.854;6.622;2022-08-21T08:00:01;11.45;;;6.07;;
14203;SDS011;7185;51.854;6.622;2022-08-21T08:02:35;10.50;;;5.55;;
14203;SDS011;7185;51.854;6.622;2022-08-21T08:05:08;13.63;;;5.90;;
14203;SDS011;7185;51.854;6.622;2022-08-21T08:07:42;11.27;;;5.63;;
14203;SDS011;7185;51.854;6.622;2022-08-21T08:10:13;13.88;;;5.97;;
14203;SDS011;7185;51.854;6.622;2022-08-21T08:12:46;13.35;;;5.72;;
14203;SDS011;7185;51.854;6.622;2022-08-21T08:15:20;10.50;;;6.15;;
14203;SDS011;7185;51.854;6.622;2022-08-21T08:17:55;11.93;;;4.60;;
14203;SDS011;7185;51.854;6.622;2022-08-21T08:20:27;11.65;;;4.47;;
14203;SDS011;7185;51.854;6.622;2022-08-21T08:22:59;8.07;;;4.28;;
14203;SDS011;7185;51.854;6.622;2022-08-21T08:25:31;9.85;;;4.57;;
14203;SDS011;7185;51.854;6.622;2022-08-21T08:28:03;10.35;;;4.10;;
14203;SDS011;7185;51.854;6.622;2022-08-21T08:30:34;8.43;;;4.30;;
14203;SDS011;7185;51.854;6.622;2022-08-21T08:33:07;9.15;;;3.40;;
14203;SDS011;7185;51.854;6.622;2022-08-21T08:35:39;9.30;;;3.28;;
14203;SDS011;7185;51.854;6.622;2022-08-21T08:38:11;7.03;;;2.88;;
14203;SDS011;7185;51.854;6.622;2022-08-21T08:40:47;8.52;;;3.38;;
14203;SDS011;7185;51.854;6.622;2022-08-21T08:43:24;10.00;;;3.63;;
14203;SDS011;7185;51.854;6.622;2022-08-21T08:45:56;6.05;;;3.65;;
14203;SDS011;7185;51.854;6.622;2022-08-21T08:48:39;8.00;;;2.97;;
14203;SDS011;7185;51.854;6.622;2022-08-21T08:51:18;7.40;;;3.03;;
14203;SDS011;7185;51.854;6.622;2022-08-21T08:53:55;8.60;;;3.22;;
14203;SDS011;7185;51.854;6.622;2022-08-21T08:56:32;6.97;;;2.78;;
14203;SDS011;7185;51.854;6.622;2022-08-21T08:59:07;7.40;;;3.00;;
14203;SDS011;7185;51.854;6.622;2022-08-21T09:01:44;7.72;;;2.75;;
14203;SDS011;7185;51.854;6.622;2022-08-21T09:04:18;11.95;;;3.65;;
14203;SDS011;7185;51.854;6.622;2022-08-21T09:07:01;8.98;;;2.83;;
14203;SDS011;7185;51.854;6.622;2022-08-21T09:09:44;10.23;;;4.10;;
14203;SDS011;7185;51.854;6.622;2022-08-21T09:12:30;8.02;;;3.20;;
14203;SDS011;7185;51.854;6.622;2022-08-21T09:15:10;11.95;;;3.97;;
14203;SDS011;7185;51.854;6.622;2022-08-21T09:18:01;11.13;;;3.70;;
14203;SDS011;7185;51.854;6.622;2022-08-21T09:20:48;9.95;;;3.78;;
14203;SDS011;7185;51.854;6.622;2022-08-21T09:23:33;10.45;;;3.78;;
14203;SDS011;7185;51.854;6.622;2022-08-21T09:26:16;7.85;;;3.38;;
14203;SDS011;7185;51.854;6.622;2022-08-21T09:28:50;13.40;;;4.45;;
14203;SDS011;7185;51.854;6.622;2022-08-21T09:31:26;9.68;;;3.80;;
14203;SDS011;7185;51.854;6.622;2022-08-21T09:33:59;7.70;;;3.58;;
14203;SDS011;7185;51.854;6.622;2022-08-21T09:36:36;10.52;;;3.10;;
14203;SDS011;7185;51.854;6.622;2022-08-21T09:39:10;7.90;;;3.17;;
14203;SDS011;7185;51.854;6.622;2022-08-21T09:41:42;6.47;;;2.80;;
14203;SDS011;7185;51.854;6.622;2022-08-21T09:44:14;11.05;;;3.30;;
14203;SDS011;7185;51.854;6.622;2022-08-21T09:46:56;9.68;;;3.63;;
14203;SDS011;7185;51.854;6.622;2022-08-21T09:49:28;8.07;;;2.53;;
14203;SDS011;7185;51.854;6.622;2022-08-21T09:52:03;6.18;;;2.65;;
14203;SDS011;7185;51.854;6.622;2022-08-21T09:54:49;8.07;;;3.05;;
14203;SDS011;7185;51.854;6.622;2022-08-21T10:00:24;8.50;;;3.30;;
14203;SDS011;7185;51.854;6.622;2022-08-21T10:03:14;9.60;;;3.53;;
14203;SDS011;7185;51.854;6.622;2022-08-21T10:05:53;8.60;;;3.45;;
14203;SDS011;7185;51.854;6.622;2022-08-21T10:08:29;8.80;;;2.80;;
14203;SDS011;7185;51.854;6.622;2022-08-21T10:11:01;9.20;;;2.40;;
14203;SDS011;7185;51.854;6.622;2022-08-21T10:13:42;10.52;;;3.53;;
14203;SDS011;7185;51.854;6.622;2022-08-21T10:16:25;8.38;;;2.88;;
14203;SDS011;7185;51.854;6.622;2022-08-21T10:19:10;5.63;;;2.35;;
14203;SDS011;7185;51.854;6.622;2022-08-21T10:21:53;9.43;;;2.92;;
14203;SDS011;7185;51.854;6.622;2022-08-21T10:24:33;6.38;;;2.20;;
14203;SDS011;7185;51.854;6.622;2022-08-21T10:27:14;9.88;;;2.47;;
14203;SDS011;7185;51.854;6.622;2022-08-21T10:29:53;8.93;;;2.33;;
14203;SDS011;7185;51.854;6.622;2022-08-21T10:32:37;7.18;;;2.38;;
14203;SDS011;7185;51.854;6.622;2022-08-21T10:35:22;8.32;;;2.33;;
14203;SDS011;7185;51.854;6.622;2022-08-21T10:38:10;11.18;;;2.40;;
14203;SDS011;7185;51.854;6.622;2022-08-21T10:41:04;6.30;;;2.10;;
14203;SDS011;7185;51.854;6.622;2022-08-21T10:43:50;7.30;;;2.08;;
14203;SDS011;7185;51.854;6.622;2022-08-21T10:46:32;8.95;;;2.40;;
14203;SDS011;7185;51.854;6.622;2022-08-21T10:49:21;7.43;;;2.50;;
14203;SDS011;7185;51.854;6.622;2022-08-21T10:52:01;7.28;;;2.60;;
14203;SDS011;7185;51.854;6.622;2022-08-21T10:54:55;5.85;;;2.13;;
14203;SDS011;7185;51.854;6.622;2022-08-21T10:57:40;7.53;;;2.10;;
14203;SDS011;7185;51.854;6.622;2022-08-21T11:00:16;9.00;;;2.20;;
14203;SDS011;7185;51.854;6.622;2022-08-21T11:02:52;8.65;;;2.22;;
14203;SDS011;7185;51.854;6.622;2022-08-21T11:05:29;6.75;;;1.92;;
14203;SDS011;7185;51.854;6.622;2022-08-21T11:08:05;7.80;;;1.98;;
14203;SDS011;7185;51.854;6.622;2022-08-21T11:10:42;7.28;;;2.10;;
14203;SDS011;7185;51.854;6.622;2022-08-21T11:13:19;7.88;;;1.85;;
14203;SDS011;7185;51.854;6.622;2022-08-21T11:16:00;6.70;;;1.60;;
14203;SDS011;7185;51.854;6.622;2022-08-21T11:18:37;6.53;;;2.03;;
14203;SDS011;7185;51.854;6.622;2022-08-21T11:21:21;4.80;;;1.63;;
14203;SDS011;7185;51.854;6.622;2022-08-21T11:24:02;9.77;;;1.90;;
14203;SDS011;7185;51.854;6.622;2022-08-21T11:26:41;7.93;;;1.83;;
14203;SDS011;7185;51.854;6.622;2022-08-21T11:29:20;8.52;;;2.17;;
14203;SDS011;7185;51.854;6.622;2022-08-21T11:31:58;5.20;;;1.63;;
14203;SDS011;7185;51.854;6.622;2022-08-21T11:34:46;5.72;;;2.17;;
14203;SDS011;7185;51.854;6.622;2022-08-21T11:37:31;5.82;;;1.98;;
14203;SDS011;7185;51.854;6.622;2022-08-21T11:40:16;10.45;;;1.88;;
14203;SDS011;7185;51.854;6.622;2022-08-21T11:43:04;6.80;;;1.67;;
14203;SDS011;7185;51.854;6.622;2022-08-21T11:45:45;4.95;;;1.60;;
14203;SDS011;7185;51.854;6.622;2022-08-21T11:48:25;6.03;;;1.85;;
14203;SDS011;7185;51.854;6.622;2022-08-21T11:51:09;5.82;;;1.58;;
14203;SDS011;7185;51.854;6.622;2022-08-21T11:53:45;5.45;;;1.88;;
14203;SDS011;7185;51.854;6.622;2022-08-21T11:56:23;4.78;;;1.50;;
14203;SDS011;7185;51.854;6.622;2022-08-21T11:58:59;4.68;;;1.60;;
14203;SDS011;7185;51.854;6.622;2022-08-21T12:01:38;8.50;;;2.33;;
14203;SDS011;7185;51.854;6.622;2022-08-21T12:04:17;8.88;;;1.70;;
14203;SDS011;7185;51.854;6.622;2022-08-21T12:06:53;5.72;;;1.67;;
14203;SDS011;7185;51.854;6.622;2022-08-21T12:09:31;6.22;;;1.67;;
14203;SDS011;7185;51.854;6.622;2022-08-21T12:12:10;6.65;;;1.65;;
14203;SDS011;7185;51.854;6.622;2022-08-21T12:14:44;5.82;;;1.55;;
14203;SDS011;7185;51.854;6.622;2022-08-21T12:17:21;4.15;;;1.20;;
14203;SDS011;7185;51.854;6.622;2022-08-21T12:19:58;6.03;;;1.90;;
14203;SDS011;7185;51.854;6.622;2022-08-21T12:22:37;6.47;;;1.60;;
14203;SDS011;7185;51.854;6.622;2022-08-21T12:25:10;6.90;;;1.67;;
14203;SDS011;7185;51.854;6.622;2022-08-21T12:27:49;3.92;;;1.27;;
14203;SDS011;7185;51.854;6.622;2022-08-21T12:30:23;5.55;;;1.20;;
14203;SDS011;7185;51.854;6.622;2022-08-21T12:33:20;5.10;;;1.35;;
14203;SDS011;7185;51.854;6.622;2022-08-21T12:36:01;4.53;;;1.17;;
14203;SDS011;7185;51.854;6.622;2022-08-21T12:38:39;8.15;;;1.35;;
14203;SDS011;7185;51.854;6.622;2022-08-21T12:41:19;3.67;;;1.30;;
14203;SDS011;7185;51.854;6.622;2022-08-21T12:43:55;4.50;;;1.35;;
14203;SDS011;7185;51.854;6.622;2022-08-21T12:49:08;5.13;;;1.17;;
14203;SDS011;7185;51.854;6.622;2022-08-21T12:51:48;6.07;;;1.35;;
14203;SDS011;7185;51.854;6.622;2022-08-21T12:54:26;6.45;;;1.50;;
14203;SDS011;7185;51.854;6.622;2022-08-21T12:57:00;4.80;;;1.20;;
14203;SDS011;7185;51.854;6.622;2022-08-21T12:59:36;4.57;;;1.20;;
14203;SDS011;7185;51.854;6.622;2022-08-21T13:04:48;6.68;;;1.38;;
14203;SDS011;7185;51.854;6.622;2022-08-21T13:07:22;5.85;;;1.40;;
14203;SDS011;7185;51.854;6.622;2022-08-21T13:09:58;3.85;;;1.20;;
14203;SDS011;7185;51.854;6.622;2022-08-21T13:12:33;7.63;;;1.50;;
14203;SDS011;7185;51.854;6.622;2022-08-21T13:15:07;8.23;;;1.40;;
14203;SDS011;7185;51.854;6.622;2022-08-21T13:17:41;4.72;;;1.20;;
14203;SDS011;7185;51.854;6.622;2022-08-21T13:20:20;4.30;;;1.30;;
14203;SDS011;7185;51.854;6.622;2022-08-21T13:22:54;5.43;;;1.30;;
14203;SDS011;7185;51.854;6.622;2022-08-21T13:25:26;5.93;;;1.45;;
14203;SDS011;7185;51.854;6.622;2022-08-21T13:28:00;5.22;;;1.17;;
14203;SDS011;7185;51.854;6.622;2022-08-21T13:30:38;3.83;;;1.20;;
14203;SDS011;7185;51.854;6.622;2022-08-21T13:33:14;4.28;;;1.25;;
14203;SDS011;7185;51.854;6.622;2022-08-21T13:35:49;3.50;;;1.20;;
14203;SDS011;7185;51.854;6.622;2022-08-21T13:38:24;3.75;;;1.13;;
14203;SDS011;7185;51.854;6.622;2022-08-21T13:41:01;5.13;;;1.02;;
14203;SDS011;7185;51.854;6.622;2022-08-21T13:43:35;3.72;;;1.50;;
14203;SDS011;7185;51.854;6.622;2022-08-21T13:46:09;5.15;;;1.40;;
14203;SDS011;7185;51.854;6.622;2022-08-21T13:48:43;4.38;;;1.13;;
14203;SDS011;7185;51.854;6.622;2022-08-21T13:51:16;4.38;;;1.30;;
14203;SDS011;7185;51.854;6.622;2022-08-21T13:53:49;5.07;;;1.10;;
14203;SDS011;7185;51.854;6.622;2022-08-21T13:56:22;3.67;;;1.23;;
14203;SDS011;7185;51.854;6.622;2022-08-21T13:58:57;5.20;;;1.23;;
14203;SDS011;7185;51.854;6.622;2022-08-21T14:01:30;4.60;;;1.15;;
14203;SDS011;7185;51.854;6.622;2022-08-21T14:04:04;6.13;;;1.48;;
14203;SDS011;7185;51.854;6.622;2022-08-21T14:06:40;5.13;;;1.27;;
14203;SDS011;7185;51.854;6.622;2022-08-21T14:09:13;4.57;;;1.20;;
14203;SDS011;7185;51.854;6.622;2022-08-21T14:12:01;3.63;;;1.10;;
14203;SDS011;7185;51.854;6.622;2022-08-21T14:14:34;4.63;;;1.30;;
14203;SDS011;7185;51.854;6.622;2022-08-21T14:17:07;4.13;;;1.15;;
14203;SDS011;7185;51.854;6.622;2022-08-21T14:19:44;4.93;;;1.10;;
14203;SDS011;7185;51.854;6.622;2022-08-21T14:22:29;3.67;;;1.13;;
14203;SDS011;7185;51.854;6.622;2022-08-21T14:25:04;3.70;;;1.10;;
14203;SDS011;7185;51.854;6.622;2022-08-21T14:27:38;3.88;;;1.10;;
14203;SDS011;7185;51.854;6.622;2022-08-21T14:30:16;4.82;;;1.20;;
14203;SDS011;7185;51.854;6.622;2022-08-21T14:32:58;6.30;;;1.23;;
14203;SDS011;7185;51.854;6.622;2022-08-21T14:35:30;4.18;;;1.50;;
14203;SDS011;7185;51.854;6.622;2022-08-21T14:38:03;5.20;;;1.15;;
14203;SDS011;7185;51.854;6.622;2022-08-21T14:40:43;5.03;;;1.30;;
14203;SDS011;7185;51.854;6.622;2022-08-21T14:43:16;4.25;;;1.60;;
14203;SDS011;7185;51.854;6.622;2022-08-21T14:45:49;3.05;;;1.30;;
14203;SDS011;7185;51.854;6.622;2022-08-21T14:48:21;5.68;;;1.63;;
14203;SDS011;7185;51.854;6.622;2022-08-21T14:50:52;2.53;;;1.15;;
14203;SDS011;7185;51.854;6.622;2022-08-21T14:53:26;4.40;;;1.30;;
14203;SDS011;7185;51.854;6.622;2022-08-21T14:55:57;5.40;;;1.42;;
14203;SDS011;7185;51.854;6.622;2022-08-21T14:58:39;3.05;;;1.20;;
14203;SDS011;7185;51.854;6.622;2022-08-21T15:01:13;4.65;;;1.50;;
14203;SDS011;7185;51.854;6.622;2022-08-21T15:03:45;5.63;;;1.20;;
14203;SDS011;7185;51.854;6.622;2022-08-21T15:06:18;4.38;;;1.30;;
14203;SDS011;7185;51.854;6.622;2022-08-21T15:08:52;3.00;;;1.27;;
14203;SDS011;7185;51.854;6.622;2022-08-21T15:11:24;3.10;;;1.10;;
14203;SDS011;7185;51.854;6.622;2022-08-21T15:13:56;5.57;;;1.42;;
14203;SDS011;7185;51.854;6.622;2022-08-21T15:16:31;4.13;;;1.08;;
14203;SDS011;7185;51.854;6.622;2022-08-21T15:19:02;3.20;;;1.10;;
14203;SDS011;7185;51.854;6.622;2022-08-21T15:21:34;8.23;;;1.58;;
14203;SDS011;7185;51.854;6.622;2022-08-21T15:24:07;3.95;;;1.30;;
14203;SDS011;7185;51.854;6.622;2022-08-21T15:26:41;3.88;;;1.30;;
14203;SDS011;7185;51.854;6.622;2022-08-21T15:29:14;4.03;;;1.40;;
14203;SDS011;7185;51.854;6.622;2022-08-21T15:31:50;5.03;;;1.42;;
14203;SDS011;7185;51.854;6.622;2022-08-21T15:34:24;4.38;;;1.70;;
14203;SDS011;7185;51.854;6.622;2022-08-21T15:36:58;4.13;;;1.80;;
14203;SDS011;7185;51.854;6.622;2022-08-21T15:39:31;5.65;;;1.67;;
14203;SDS011;7185;51.854;6.622;2022-08-21T15:42:03;4.47;;;1.67;;
14203;SDS011;7185;51.854;6.622;2022-08-21T15:44:35;4.53;;;1.80;;
14203;SDS011;7185;51.854;6.622;2022-08-21T15:47:09;4.15;;;1.45;;
14203;SDS011;7185;51.854;6.622;2022-08-21T15:49:44;4.32;;;1.50;;
14203;SDS011;7185;51.854;6.622;2022-08-21T15:52:16;4.15;;;1.52;;
14203;SDS011;7185;51.854;6.622;2022-08-21T15:54:51;6.50;;;1.70;;
14203;SDS011;7185;51.854;6.622;2022-08-21T15:57:23;3.63;;;1.33;;
14203;SDS011;7185;51.854;6.622;2022-08-21T15:59:57;4.32;;;1.50;;
14203;SDS011;7185;51.854;6.622;2022-08-21T16:02:39;7.22;;;1.70;;
14203;SDS011;7185;51.854;6.622;2022-08-21T16:05:15;4.53;;;1.57;;